Time;durP1;ratioP1;P1;durP2;ratioP2;P2;SDS_P1;SDS_P2;PMS_P1;PMS_P2;Temp;Humidity;BMP_temperature;BMP_pressure;BME280_temperature;BME280_humidity;BME280_pressure;Samples;Min_cycle;Max_cycle;Signal;HPM_P1;HPM_P2
2023/08/11 03:01:53;;;;;;;1.10;1.00;;;21.40;54.40;;;;;;5242064;23;46438;-81
2023/08/11 03:04:19;;;;;;;1.38;0.85;;;21.40;54.40;;;;;;4876783;28;45047;-81
2023/08/11 03:06:45;;;;;;;1.00;0.90;;;21.40;54.40;;;;;;4843652;28;45138;-82
2023/08/11 03:09:10;;;;;;;2.05;1.08;;;21.40;54.40;;;;;;4875461;28;47340;-82
2023/08/11 03:11:36;;;;;;;1.25;1.02;;;21.40;54.40;;;;;;4860055;28;45708;-80
2023/08/11 03:14:02;;;;;;;1.10;0.90;;;21.40;54.40;;;;;;4880774;28;44983;-82
2023/08/11 03:16:27;;;;;;;5.82;1.10;;;21.40;54.40;;;;;;4873107;28;45404;-79
2023/08/11 03:18:53;;;;;;;1.30;0.98;;;21.40;54.40;;;;;;4878219;28;45562;-80
2023/08/11 03:21:18;;;;;;;1.20;0.95;;;21.40;54.40;;;;;;4881402;28;45216;-81
2023/08/11 03:23:44;;;;;;;2.65;0.90;;;21.40;54.40;;;;;;4881339;28;45585;-81
2023/08/11 03:26:09;;;;;;;1.02;0.93;;;21.40;54.40;;;;;;4874946;28;46771;-81
2023/08/11 03:28:35;;;;;;;3.13;1.00;;;21.40;54.40;;;;;;4864236;28;45601;-81
2023/08/11 03:31:01;;;;;;;0.95;0.88;;;21.40;54.30;;;;;;4874904;28;45001;-80
2023/08/11 03:33:26;;;;;;;1.58;1.00;;;21.40;54.30;;;;;;4881685;28;45221;-80
2023/08/11 03:35:52;;;;;;;1.10;1.00;;;21.40;54.30;;;;;;4876448;28;45197;-83
2023/08/11 03:38:18;;;;;;;1.00;0.90;;;21.40;54.30;;;;;;4850792;28;49585;-79
2023/08/11 03:40:43;;;;;;;2.25;1.00;;;21.40;54.30;;;;;;4858980;28;45221;-81
2023/08/11 03:43:09;;;;;;;1.13;0.93;;;21.40;54.30;;;;;;4881127;28;45591;-79
2023/08/11 03:45:35;;;;;;;1.55;1.20;;;21.40;54.30;;;;;;4877545;28;45413;-82
2023/08/11 03:48:00;;;;;;;1.08;0.90;;;21.40;54.30;;;;;;4890775;28;45577;-79
2023/08/11 03:50:26;;;;;;;1.23;1.00;;;21.40;54.30;;;;;;4877918;28;45299;-82
2023/08/11 03:52:51;;;;;;;1.65;1.00;;;21.40;54.30;;;;;;4846247;28;45367;-82
2023/08/11 03:55:17;;;;;;;1.10;0.98;;;21.40;54.30;;;;;;4879339;28;45332;-81
2023/08/11 03:57:44;;;;;;;1.25;1.05;;;21.40;54.30;;;;;;4881781;28;45507;-80
2023/08/11 04:00:14;;;;;;;1.10;0.90;;;21.40;54.30;;;;;;4877830;28;45265;-82
2023/08/11 04:02:41;;;;;;;2.27;1.03;;;21.40;54.30;;;;;;4815386;29;1387638;-80
2023/08/11 04:05:07;;;;;;;1.05;0.95;;;21.40;54.30;;;;;;4878844;28;45067;-82
2023/08/11 04:07:32;;;;;;;0.70;0.70;;;21.40;54.30;;;;;;4878703;28;47380;-80
2023/08/11 04:09:58;;;;;;;1.80;0.80;;;21.40;54.30;;;;;;4858118;28;45607;-81
2023/08/11 04:12:24;;;;;;;1.45;0.98;;;21.40;54.30;;;;;;4860966;29;45289;-80
2023/08/11 04:14:49;;;;;;;1.00;0.90;;;21.40;54.20;;;;;;4866118;28;44848;-81
2023/08/11 04:17:16;;;;;;;1.40;1.02;;;21.40;54.20;;;;;;4877016;28;45656;-79
2023/08/11 04:19:42;;;;;;;1.25;0.85;;;21.40;54.20;;;;;;4858888;28;45887;-81
2023/08/11 04:22:08;;;;;;;1.45;1.00;;;21.40;54.20;;;;;;4862795;28;45485;-81
2023/08/11 04:24:33;;;;;;;1.45;1.17;;;21.40;54.20;;;;;;4879816;29;44836;-81
2023/08/11 04:26:59;;;;;;;2.53;1.13;;;21.40;54.20;;;;;;4863234;28;45654;-81
2023/08/11 04:29:26;;;;;;;0.88;0.88;;;21.40;54.20;;;;;;4895958;28;45459;-80
2023/08/11 04:31:51;;;;;;;1.92;0.90;;;21.40;54.20;;;;;;4853476;28;45852;-81
2023/08/11 04:34:17;;;;;;;2.28;1.25;;;21.40;54.20;;;;;;4877056;28;44868;-80
2023/08/11 04:36:42;;;;;;;1.30;0.95;;;21.40;54.20;;;;;;4862413;29;44981;-80
2023/08/11 04:39:08;;;;;;;1.23;1.08;;;21.40;54.20;;;;;;4861796;28;45179;-80
2023/08/11 04:41:34;;;;;;;3.10;0.98;;;21.40;54.20;;;;;;4873796;28;45101;-83
2023/08/11 04:43:59;;;;;;;1.98;1.23;;;21.40;54.20;;;;;;4876389;28;45594;-81
2023/08/11 04:46:25;;;;;;;1.30;1.00;;;21.40;54.40;;;;;;4841512;29;47108;-83
2023/08/11 04:48:51;;;;;;;1.70;0.90;;;21.40;54.10;;;;;;4858869;29;46359;-79
2023/08/11 04:51:16;;;;;;;1.05;0.88;;;21.40;54.10;;;;;;4874848;28;45418;-80
2023/08/11 04:53:42;;;;;;;1.05;0.95;;;21.40;54.10;;;;;;4856643;29;45166;-80
2023/08/11 04:56:08;;;;;;;1.42;1.00;;;21.40;54.10;;;;;;4861175;28;47119;-80
2023/08/11 04:58:34;;;;;;;1.20;1.00;;;21.40;54.10;;;;;;4880756;28;45341;-80
2023/08/11 05:01:07;;;;;;;0.80;0.80;;;21.40;54.10;;;;;;4856624;28;45687;-83
2023/08/11 05:03:33;;;;;;;1.00;0.90;;;21.40;54.20;;;;;;4893388;28;45562;-80
2023/08/11 05:05:58;;;;;;;1.08;1.02;;;21.40;54.10;;;;;;4879882;28;46279;-82
2023/08/11 05:08:24;;;;;;;2.20;1.15;;;21.40;54.10;;;;;;4879409;28;45151;-79
2023/08/11 05:10:50;;;;;;;1.65;1.17;;;21.40;54.20;;;;;;4860544;29;45405;-83
2023/08/11 05:13:15;;;;;;;1.25;1.15;;;21.40;54.10;;;;;;4850006;28;45132;-80
2023/08/11 05:15:41;;;;;;;1.30;1.20;;;21.30;54.10;;;;;;4855148;29;46726;-81
2023/08/11 05:18:06;;;;;;;1.30;1.00;;;21.40;54.10;;;;;;4886529;28;45276;-80
2023/08/11 05:20:32;;;;;;;1.83;1.10;;;21.40;54.10;;;;;;4841441;29;45278;-80
2023/08/11 05:22:58;;;;;;;1.67;1.10;;;21.40;54.20;;;;;;4859793;28;46397;-83
2023/08/11 05:25:23;;;;;;;3.45;1.42;;;21.40;54.10;;;;;;4857481;28;47105;-80
2023/08/11 05:27:49;;;;;;;1.33;1.13;;;21.40;54.10;;;;;;4891954;28;45234;-79
2023/08/11 05:30:15;;;;;;;1.02;0.95;;;21.30;54.10;;;;;;4873724;28;45616;-81
2023/08/11 05:32:40;;;;;;;1.25;1.00;;;21.40;54.10;;;;;;4878649;29;45202;-80
2023/08/11 05:35:08;;;;;;;1.70;1.15;;;21.40;54.10;;;;;;4874705;28;45377;-83
2023/08/11 05:37:34;;;;;;;3.15;1.10;;;21.40;54.20;;;;;;4861169;29;45494;-80
2023/08/11 05:39:59;;;;;;;2.13;1.33;;;21.30;54.10;;;;;;4880554;29;45755;-80
2023/08/11 05:42:25;;;;;;;1.55;1.08;;;21.30;54.10;;;;;;4894466;28;45250;-80
2023/08/11 05:44:50;;;;;;;2.15;1.00;;;21.30;54.10;;;;;;4849597;28;47203;-79
2023/08/11 05:47:16;;;;;;;1.48;1.00;;;21.30;54.10;;;;;;4887571;28;45269;-80
2023/08/11 05:49:42;;;;;;;1.42;1.13;;;21.40;54.20;;;;;;4882611;29;45380;-79
2023/08/11 05:52:07;;;;;;;1.20;1.10;;;21.40;54.10;;;;;;4862856;28;45018;-79
2023/08/11 05:54:33;;;;;;;1.30;1.10;;;21.30;54.10;;;;;;4883725;29;46520;-80
2023/08/11 05:56:58;;;;;;;1.33;1.23;;;21.30;54.10;;;;;;4863760;28;44888;-82
2023/08/11 05:59:25;;;;;;;1.50;1.10;;;21.30;54.10;;;;;;4880393;28;45730;-80
2023/08/11 06:01:51;;;;;;;2.05;1.08;;;21.30;54.10;;;;;;4878501;29;45765;-80
2023/08/11 06:04:16;;;;;;;2.47;1.13;;;21.30;54.10;;;;;;4892798;28;45592;-80
2023/08/11 06:06:42;;;;;;;1.58;1.20;;;21.30;54.10;;;;;;4863561;29;45345;-79
2023/08/11 06:09:08;;;;;;;1.50;1.20;;;21.30;54.10;;;;;;4877841;28;45727;-80
2023/08/11 06:11:34;;;;;;;1.30;1.20;;;21.30;54.10;;;;;;4880527;28;45649;-80
2023/08/11 06:13:59;;;;;;;2.40;1.10;;;21.30;54.10;;;;;;4850156;28;47415;-81
2023/08/11 06:16:25;;;;;;;1.20;1.10;;;21.30;54.10;;;;;;4862927;28;45863;-79
2023/08/11 06:18:50;;;;;;;1.42;1.00;;;21.30;54.10;;;;;;4880016;28;45323;-81
2023/08/11 06:21:17;;;;;;;2.05;1.20;;;21.30;54.10;;;;;;4896129;28;44827;-81
2023/08/11 06:23:43;;;;;;;2.22;1.35;;;21.30;54.10;;;;;;4867266;29;47382;-79
2023/08/11 06:26:09;;;;;;;1.20;1.10;;;21.40;54.10;;;;;;4882936;28;46015;-81
2023/08/11 06:28:34;;;;;;;2.58;1.30;;;21.30;54.10;;;;;;4881888;28;45113;-80
2023/08/11 06:31:01;;;;;;;1.25;1.05;;;21.30;54.70;;;;;;4845536;28;44868;-79
2023/08/11 06:33:27;;;;;;;1.02;0.98;;;21.30;54.10;;;;;;4862756;28;45522;-80
2023/08/11 06:35:53;;;;;;;1.60;1.30;;;21.30;54.70;;;;;;4865417;28;44756;-81
2023/08/11 06:38:18;;;;;;;1.85;1.33;;;21.30;54.10;;;;;;4865833;28;44984;-80
2023/08/11 06:40:44;;;;;;;1.85;1.30;;;21.30;54.20;;;;;;4878981;28;46156;-80
2023/08/11 06:43:09;;;;;;;3.80;1.05;;;21.30;54.10;;;;;;4881056;28;45888;-80
2023/08/11 06:45:35;;;;;;;1.75;1.30;;;21.30;54.10;;;;;;4893916;28;45202;-79
2023/08/11 06:48:01;;;;;;;2.05;1.25;;;21.30;54.10;;;;;;4854458;28;45472;-79
2023/08/11 06:50:26;;;;;;;1.33;1.23;;;21.30;54.10;;;;;;4877496;28;45153;-81
2023/08/11 06:52:52;;;;;;;2.53;1.30;;;21.30;54.10;;;;;;4863282;29;46490;-81
2023/08/11 06:55:17;;;;;;;1.63;1.10;;;21.30;54.10;;;;;;4841981;28;45584;-80
2023/08/11 06:57:43;;;;;;;2.20;1.30;;;21.30;54.10;;;;;;4881656;29;45736;-81
2023/08/11 07:00:09;;;;;;;1.88;1.23;;;21.30;54.10;;;;;;4861753;29;45744;-83
2023/08/11 07:02:35;;;;;;;1.45;1.20;;;21.30;54.10;;;;;;4891713;28;45188;-79
2023/08/11 07:05:05;;;;;;;1.40;1.30;;;21.30;54.10;;;;;;4861354;29;45111;-80
2023/08/11 07:07:31;;;;;;;1.40;1.10;;;21.30;54.10;;;;;;4861910;28;45723;-80
2023/08/11 07:09:56;;;;;;;1.00;0.93;;;21.30;54.10;;;;;;4884992;28;45607;-79
2023/08/11 07:12:22;;;;;;;1.52;1.30;;;21.30;54.10;;;;;;4879393;28;45377;-80
2023/08/11 07:14:47;;;;;;;2.90;1.42;;;21.30;54.10;;;;;;4862374;28;45187;-80
2023/08/11 07:17:13;;;;;;;1.83;1.05;;;21.30;54.10;;;;;;4873351;28;44768;-81
2023/08/11 07:19:38;;;;;;;1.45;1.30;;;21.30;54.10;;;;;;4852004;29;45247;-80
2023/08/11 07:22:04;;;;;;;1.35;1.25;;;21.30;54.10;;;;;;4847881;28;47215;-80
2023/08/11 07:24:30;;;;;;;1.80;1.25;;;21.30;54.10;;;;;;4878484;28;44737;-81
2023/08/11 07:26:55;;;;;;;1.63;1.30;;;21.30;54.10;;;;;;4874174;29;45333;-80
2023/08/11 07:29:21;;;;;;;1.67;1.25;;;21.30;54.10;;;;;;4863976;28;45356;-81
2023/08/11 07:31:46;;;;;;;1.38;1.13;;;21.30;54.10;;;;;;4855800;29;45558;-80
2023/08/11 07:34:12;;;;;;;1.92;1.40;;;21.30;54.10;;;;;;4863652;28;46264;-81
2023/08/11 07:36:38;;;;;;;1.20;1.10;;;21.30;54.10;;;;;;4875397;28;45578;-81
2023/08/11 07:39:07;;;;;;;1.13;1.00;;;21.30;54.10;;;;;;4862283;29;44767;-82
2023/08/11 07:41:33;;;;;;;1.20;1.10;;;21.30;54.10;;;;;;4891277;28;45525;-80
2023/08/11 07:43:58;;;;;;;1.15;1.05;;;21.30;54.10;;;;;;4870052;29;44779;-80
2023/08/11 07:46:24;;;;;;;1.65;1.20;;;21.30;54.10;;;;;;4893659;28;45573;-80
2023/08/11 07:48:49;;;;;;;1.95;1.13;;;21.30;54.10;;;;;;4876752;29;45370;-81
2023/08/11 07:51:15;;;;;;;1.50;1.00;;;21.30;54.10;;;;;;4860459;28;47702;-82
2023/08/11 07:53:40;;;;;;;1.50;1.20;;;21.30;54.10;;;;;;4864669;29;45478;-80
2023/08/11 07:56:06;;;;;;;1.10;1.00;;;21.30;54.10;;;;;;4864014;28;45153;-81
2023/08/11 07:58:32;;;;;;;1.70;1.50;;;21.30;54.10;;;;;;4876741;28;45552;-81
2023/08/11 08:00:57;;;;;;;1.52;1.42;;;21.30;54.10;;;;;;4878272;28;45231;-80
2023/08/11 08:03:23;;;;;;;1.60;1.20;;;21.30;54.10;;;;;;4904343;28;44952;-81
2023/08/11 08:05:49;;;;;;;1.30;1.20;;;21.30;54.10;;;;;;4866982;28;44815;-82
2023/08/11 08:08:14;;;;;;;1.10;1.00;;;21.30;54.10;;;;;;4876523;28;45432;-83
2023/08/11 08:10:40;;;;;;;1.75;1.30;;;21.30;54.10;;;;;;4882985;28;45438;-80
2023/08/11 08:13:05;;;;;;;2.03;1.15;;;21.30;54.10;;;;;;4866223;28;45478;-80
2023/08/11 08:15:31;;;;;;;1.20;1.10;;;21.30;54.10;;;;;;4883674;28;45054;-80
2023/08/11 08:17:56;;;;;;;1.75;1.20;;;21.30;54.70;;;;;;4870992;28;45274;-81
2023/08/11 08:20:22;;;;;;;1.25;0.93;;;21.40;54.10;;;;;;4884670;28;45768;-80
2023/08/11 08:22:47;;;;;;;1.50;1.30;;;21.30;54.10;;;;;;4866254;28;45458;-80
2023/08/11 08:25:16;;;;;;;3.15;1.30;;;21.40;54.10;;;;;;4878717;28;45087;-80
2023/08/11 08:27:42;;;;;;;1.65;1.17;;;21.30;54.10;;;;;;4866863;28;45267;-80
2023/08/11 08:30:11;;;;;;;1.20;1.10;;;21.30;54.10;;;;;;4865071;28;45499;-82
2023/08/11 08:32:37;;;;;;;1.30;1.20;;;21.30;54.70;;;;;;4884415;28;45455;-81
2023/08/11 08:35:04;;;;;;;1.10;1.00;;;21.30;54.10;;;;;;4881627;28;45506;-83
2023/08/11 08:37:31;;;;;;;1.00;0.90;;;21.30;54.10;;;;;;4857062;28;45543;-80
2023/08/11 08:39:57;;;;;;;1.73;1.13;;;21.40;54.10;;;;;;4873437;28;47475;-80
2023/08/11 08:42:22;;;;;;;1.95;1.20;;;21.30;54.10;;;;;;4865024;28;45339;-82
2023/08/11 08:44:48;;;;;;;1.98;1.20;;;21.30;54.10;;;;;;4866804;28;45676;-81
2023/08/11 08:47:14;;;;;;;3.28;1.15;;;21.30;54.10;;;;;;4848224;28;45552;-80
2023/08/11 08:49:39;;;;;;;1.83;1.27;;;21.40;54.10;;;;;;4870127;28;45605;-82
2023/08/11 08:52:06;;;;;;;1.02;0.93;;;21.40;54.10;;;;;;4881196;28;45957;-80
2023/08/11 08:54:32;;;;;;;1.80;1.23;;;21.30;54.10;;;;;;4862138;28;45117;-82
2023/08/11 08:56:58;;;;;;;1.55;1.33;;;21.30;54.10;;;;;;4884297;28;45478;-81
2023/08/11 08:59:24;;;;;;;1.50;1.10;;;21.40;54.20;;;;;;4879689;28;45322;-81
2023/08/11 09:01:50;;;;;;;1.50;1.10;;;21.30;54.10;;;;;;4863677;28;45468;-80
2023/08/11 09:04:15;;;;;;;1.23;1.13;;;21.40;54.10;;;;;;4882077;28;45275;-79
2023/08/11 09:06:41;;;;;;;1.77;1.30;;;21.40;54.10;;;;;;4880899;28;44741;-79
2023/08/11 09:09:07;;;;;;;1.40;1.00;;;21.40;54.10;;;;;;4883491;28;46281;-81
2023/08/11 09:11:33;;;;;;;1.77;1.23;;;21.40;54.10;;;;;;4878902;28;45689;-80
2023/08/11 09:14:02;;;;;;;1.58;1.30;;;21.40;54.10;;;;;;4895337;28;46698;-82
2023/08/11 09:16:28;;;;;;;1.35;1.02;;;21.40;54.10;;;;;;4859902;28;45640;-86
2023/08/11 09:18:54;;;;;;;1.88;1.40;;;21.40;54.10;;;;;;4871447;28;47243;-81
2023/08/11 09:21:23;;;;;;;1.23;1.10;;;21.40;54.70;;;;;;4867901;28;45318;-83
2023/08/11 09:23:49;;;;;;;3.25;1.10;;;21.40;54.10;;;;;;4886332;28;45345;-88
2023/08/11 09:26:14;;;;;;;1.33;1.20;;;21.40;54.10;;;;;;4871793;28;45398;-81
2023/08/11 09:28:40;;;;;;;1.50;1.17;;;21.40;54.20;;;;;;4853650;28;47251;-82
2023/08/11 09:31:06;;;;;;;1.48;1.20;;;21.40;54.10;;;;;;4849525;28;45456;-84
2023/08/11 09:33:33;;;;;;;1.25;1.05;;;21.40;54.20;;;;;;4855353;28;45265;-81
2023/08/11 09:35:59;;;;;;;1.70;1.40;;;21.40;54.10;;;;;;4884700;28;45646;-82
2023/08/11 09:38:25;;;;;;;2.28;1.23;;;21.40;54.20;;;;;;4869527;28;48436;-82
2023/08/11 09:40:50;;;;;;;2.60;1.30;;;21.40;54.20;;;;;;4887266;28;45286;-83
2023/08/11 09:43:16;;;;;;;1.38;1.02;;;21.40;54.20;;;;;;4889273;28;45465;-82
2023/08/11 09:45:42;;;;;;;4.28;1.50;;;21.40;54.20;;;;;;4884614;28;45279;-82
2023/08/11 09:48:08;;;;;;;1.10;1.00;;;21.40;54.20;;;;;;4877022;28;46466;-83
2023/08/11 09:50:34;;;;;;;1.77;1.25;;;21.40;54.20;;;;;;4856280;28;45941;-82
2023/08/11 09:53:00;;;;;;;1.70;1.40;;;21.40;54.20;;;;;;4887805;28;45278;-82
2023/08/11 09:55:26;;;;;;;1.60;1.25;;;21.40;54.20;;;;;;4876532;28;45597;-83
2023/08/11 09:57:51;;;;;;;1.38;1.13;;;21.40;54.20;;;;;;4873827;28;48839;-87
2023/08/11 10:00:19;;;;;;;1.10;1.00;;;21.40;54.20;;;;;;4889692;28;44956;-82
2023/08/11 10:03:09;;;;;;;1.80;1.00;;;21.40;54.20;;;;;;4872526;28;45635;-82
2023/08/11 10:05:37;;;;;;;1.88;1.02;;;21.40;54.20;;;;;;4885582;28;45473;-82
2023/08/11 10:08:04;;;;;;;1.83;1.20;;;21.40;54.20;;;;;;4871144;28;47171;-82
2023/08/11 10:10:30;;;;;;;0.80;0.80;;;21.40;54.20;;;;;;4874324;28;45425;-82
2023/08/11 10:13:21;;;;;;;1.50;1.30;;;21.40;54.20;;;;;;4884815;28;44931;-82
2023/08/11 10:15:48;;;;;;;1.10;1.00;;;21.40;54.20;;;;;;4868288;29;45598;-82
2023/08/11 10:18:14;;;;;;;0.93;0.93;;;21.40;54.20;;;;;;4864430;28;46971;-83
2023/08/11 10:20:40;;;;;;;1.35;1.08;;;21.40;54.20;;;;;;4880031;28;44888;-82
2023/08/11 10:23:06;;;;;;;1.63;1.10;;;21.50;54.30;;;;;;4864077;28;45284;-83
2023/08/11 10:25:32;;;;;;;1.23;0.90;;;21.50;54.30;;;;;;4876552;28;44812;-83
2023/08/11 10:27:58;;;;;;;2.80;0.98;;;21.50;54.30;;;;;;4865944;28;47355;-82
2023/08/11 10:30:23;;;;;;;1.38;1.17;;;21.50;54.40;;;;;;4878432;28;45008;-86
2023/08/11 10:33:01;;;;;;;1.85;1.17;;;21.50;54.30;;;;;;4869979;28;45674;-82
2023/08/11 10:35:33;;;;;;;1.75;1.10;;;21.50;54.30;;;;;;4864279;28;45499;-83
2023/08/11 10:37:59;;;;;;;1.65;1.25;;;21.50;54.40;;;;;;4879185;29;47076;-84
2023/08/11 10:40:32;;;;;;;1.17;1.00;;;21.50;54.90;;;;;;4892448;28;45163;-84
2023/08/11 10:43:02;;;;;;;1.08;0.93;;;21.50;54.30;;;;;;4882874;28;45693;-82
2023/08/11 10:45:29;;;;;;;1.58;1.20;;;21.50;54.30;;;;;;4859904;28;44888;-86
2023/08/11 10:47:55;;;;;;;1.75;1.15;;;21.50;54.30;;;;;;4865016;28;46857;-82
2023/08/11 10:50:23;;;;;;;1.10;1.00;;;21.50;54.30;;;;;;4865671;28;45516;-82
2023/08/11 10:53:17;;;;;;;1.52;1.17;;;21.50;54.30;;;;;;4863942;28;45506;-82
2023/08/11 10:55:45;;;;;;;1.08;0.98;;;21.60;54.40;;;;;;4879590;28;45675;-83
2023/08/11 10:58:17;;;;;;;1.42;1.08;;;21.50;54.40;;;;;;4865033;29;47036;-84
2023/08/11 11:00:43;;;;;;;3.10;1.20;;;21.60;54.40;;;;;;4878154;28;45415;-82
2023/08/11 11:03:09;;;;;;;1.10;1.00;;;21.60;54.50;;;;;;4886403;28;45223;-82
2023/08/11 11:05:35;;;;;;;1.20;1.10;;;21.60;54.40;;;;;;4872024;28;45257;-82
2023/08/11 11:08:00;;;;;;;0.93;0.93;;;21.60;54.40;;;;;;4868946;28;45500;-83
2023/08/11 11:10:28;;;;;;;1.10;0.90;;;21.60;54.50;;;;;;4883951;28;45586;-82
2023/08/11 11:12:55;;;;;;;2.45;1.10;;;21.60;54.50;;;;;;4867892;28;45377;-83
2023/08/11 11:15:21;;;;;;;1.15;0.95;;;21.60;54.40;;;;;;4867841;28;45535;-83
2023/08/11 11:17:49;;;;;;;1.25;1.00;;;21.60;54.40;;;;;;4871051;28;46592;-81
2023/08/11 11:20:14;;;;;;;1.42;1.25;;;21.60;54.50;;;;;;4875337;28;45262;-82
2023/08/11 11:22:49;;;;;;;1.20;1.10;;;21.60;54.50;;;;;;4877276;28;45025;-84
2023/08/11 11:25:16;;;;;;;1.75;1.20;;;21.60;55.10;;;;;;4880951;28;45244;-82
2023/08/11 11:27:43;;;;;;;1.20;0.90;;;21.60;54.50;;;;;;4883440;28;45663;-84
2023/08/11 11:30:12;;;;;;;1.77;1.00;;;21.60;54.50;;;;;;4886031;28;45381;-84
2023/08/11 11:32:38;;;;;;;1.38;0.90;;;21.60;54.50;;;;;;4869759;28;45531;-82
2023/08/11 11:35:07;;;;;;;0.90;0.90;;;21.60;54.50;;;;;;4885754;28;45272;-86
2023/08/11 11:37:32;;;;;;;1.27;1.17;;;21.60;54.50;;;;;;4859973;28;46920;-82
2023/08/11 11:39:59;;;;;;;0.90;0.90;;;21.60;54.50;;;;;;4887322;28;45214;-84
2023/08/11 11:42:29;;;;;;;2.55;1.20;;;21.60;54.50;;;;;;4893984;28;45492;-84
2023/08/11 11:44:55;;;;;;;1.45;1.00;;;21.60;54.50;;;;;;4869288;28;45278;-84
2023/08/11 11:47:21;;;;;;;2.15;1.17;;;21.60;54.50;;;;;;4850840;28;46181;-82
2023/08/11 11:49:54;;;;;;;1.40;0.95;;;21.60;54.50;;;;;;4883675;28;45622;-81
2023/08/11 11:52:20;;;;;;;1.08;0.70;;;21.60;54.50;;;;;;4898342;28;45527;-85
2023/08/11 11:54:50;;;;;;;1.17;0.80;;;21.60;54.60;;;;;;4884292;28;45839;-82
2023/08/11 11:57:16;;;;;;;1.10;1.00;;;21.60;54.60;;;;;;4882591;28;45500;-81
2023/08/11 11:59:42;;;;;;;1.30;1.15;;;21.60;54.60;;;;;;4864205;28;44794;-80
2023/08/11 12:02:07;;;;;;;1.15;0.82;;;21.60;54.60;;;;;;4864384;28;45230;-82
2023/08/11 12:04:33;;;;;;;1.15;0.98;;;21.60;54.60;;;;;;4901421;28;45286;-81
2023/08/11 12:06:58;;;;;;;1.55;1.30;;;21.60;54.60;;;;;;4880800;28;47001;-81
2023/08/11 12:09:24;;;;;;;1.60;0.98;;;21.70;54.60;;;;;;4882776;28;46650;-82
2023/08/11 12:11:53;;;;;;;1.30;0.90;;;21.60;54.60;;;;;;4852097;28;45498;-82
2023/08/11 12:14:19;;;;;;;1.00;0.85;;;21.70;54.60;;;;;;4888165;28;45276;-82
2023/08/11 12:16:44;;;;;;;1.30;1.10;;;21.70;54.60;;;;;;4869356;28;46110;-82
2023/08/11 12:19:10;;;;;;;1.30;1.10;;;21.60;54.60;;;;;;4853099;28;45505;-82
2023/08/11 12:21:35;;;;;;;0.93;0.82;;;21.70;54.70;;;;;;4895264;28;45323;-84
2023/08/11 12:24:01;;;;;;;1.00;0.77;;;21.60;54.60;;;;;;4871109;28;46014;-83
2023/08/11 12:26:27;;;;;;;0.98;0.95;;;21.70;54.70;;;;;;4904672;28;45276;-81
2023/08/11 12:28:52;;;;;;;1.48;1.10;;;21.70;54.70;;;;;;4895942;28;44710;-83
2023/08/11 12:31:18;;;;;;;0.90;0.90;;;21.70;54.70;;;;;;4863887;28;45526;-81
2023/08/11 12:33:44;;;;;;;1.52;1.05;;;21.70;54.70;;;;;;4867741;28;45245;-81
2023/08/11 12:36:09;;;;;;;1.17;1.08;;;21.70;54.70;;;;;;4884517;28;46143;-81
2023/08/11 12:38:35;;;;;;;2.08;1.00;;;21.70;54.70;;;;;;4885246;28;45509;-83
2023/08/11 12:41:01;;;;;;;1.00;0.90;;;21.70;54.70;;;;;;4884290;28;45286;-81
2023/08/11 12:43:26;;;;;;;1.95;0.90;;;21.70;54.70;;;;;;4868289;28;45652;-81
2023/08/11 12:45:52;;;;;;;1.73;0.90;;;21.70;54.70;;;;;;4864785;28;46281;-82
2023/08/11 12:48:18;;;;;;;1.05;0.95;;;21.70;54.70;;;;;;4865113;28;45520;-81
2023/08/11 12:50:44;;;;;;;0.80;0.80;;;21.70;54.80;;;;;;4884976;28;44763;-82
2023/08/11 12:53:09;;;;;;;1.92;1.10;;;21.70;54.70;;;;;;4866420;28;45106;-81
2023/08/11 12:55:37;;;;;;;0.93;0.85;;;21.70;54.80;;;;;;4885026;28;45497;-81
2023/08/11 12:58:02;;;;;;;1.00;0.90;;;21.70;54.80;;;;;;4872454;28;45630;-85
2023/08/11 13:00:28;;;;;;;2.75;1.10;;;21.70;54.80;;;;;;4851303;28;45270;-83
2023/08/11 13:02:54;;;;;;;0.93;0.82;;;21.70;54.80;;;;;;4867387;28;45652;-81
2023/08/11 13:05:19;;;;;;;1.30;1.00;;;21.70;54.80;;;;;;4864568;28;45420;-81
2023/08/11 13:07:45;;;;;;;0.80;0.80;;;21.70;54.80;;;;;;4881277;28;45225;-83
2023/08/11 13:10:10;;;;;;;1.10;1.00;;;21.70;54.80;;;;;;4881704;28;45463;-81
2023/08/11 13:12:40;;;;;;;1.10;1.00;;;21.70;54.80;;;;;;4883933;28;45096;-82
2023/08/11 13:15:06;;;;;;;1.10;1.00;;;21.70;54.80;;;;;;4865048;28;46599;-84
2023/08/11 13:17:32;;;;;;;0.90;0.90;;;21.70;54.80;;;;;;4864664;28;45203;-84
2023/08/11 13:20:01;;;;;;;0.90;0.90;;;21.70;54.80;;;;;;4857197;28;48508;-82
2023/08/11 13:22:28;;;;;;;1.00;0.90;;;21.70;54.90;;;;;;4867099;28;44920;-80
2023/08/11 13:24:53;;;;;;;0.90;0.90;;;21.70;54.90;;;;;;4876243;28;47312;-80
2023/08/11 13:27:19;;;;;;;1.10;1.00;;;21.70;54.80;;;;;;4883130;28;45795;-80
2023/08/11 13:29:44;;;;;;;0.93;0.85;;;21.70;54.90;;;;;;4865141;28;44957;-83
2023/08/11 13:32:10;;;;;;;1.23;1.10;;;21.70;54.90;;;;;;4883049;28;45470;-85
2023/08/11 13:34:36;;;;;;;1.08;0.90;;;21.70;54.90;;;;;;4866459;28;46753;-84
2023/08/11 13:37:01;;;;;;;1.02;0.80;;;21.70;54.90;;;;;;4885046;28;45364;-81
2023/08/11 13:39:27;;;;;;;1.05;0.95;;;21.70;54.90;;;;;;4847943;28;46246;-82
2023/08/11 13:41:53;;;;;;;1.63;1.15;;;21.70;54.90;;;;;;4862414;28;45273;-82
2023/08/11 13:44:20;;;;;;;1.20;1.00;;;21.70;54.90;;;;;;4884910;28;45417;-81
2023/08/11 13:46:45;;;;;;;0.98;0.90;;;21.70;55.00;;;;;;4886510;28;45370;-81
2023/08/11 13:49:11;;;;;;;0.77;0.77;;;21.70;55.10;;;;;;4882362;28;45463;-80
2023/08/11 13:51:36;;;;;;;1.10;1.00;;;21.80;55.10;;;;;;4855468;28;45258;-87
2023/08/11 13:54:03;;;;;;;1.67;0.90;;;21.80;55.10;;;;;;4888448;28;46160;-83
2023/08/11 13:56:29;;;;;;;1.67;1.00;;;21.70;55.20;;;;;;4880270;28;45281;-83
2023/08/11 13:58:54;;;;;;;1.05;0.95;;;21.70;55.20;;;;;;4886402;28;44869;-84
2023/08/11 14:01:20;;;;;;;1.52;1.13;;;21.70;55.20;;;;;;4882297;28;45019;-85
2023/08/11 14:03:45;;;;;;;1.27;1.10;;;21.80;55.20;;;;;;4868985;28;47020;-81
2023/08/11 14:06:12;;;;;;;1.27;1.17;;;21.70;55.20;;;;;;4885526;28;45495;-84
2023/08/11 14:08:38;;;;;;;1.40;1.08;;;21.70;55.30;;;;;;4890540;28;45660;-82
2023/08/11 14:11:04;;;;;;;1.13;1.00;;;21.80;55.40;;;;;;4892103;28;44794;-82
2023/08/11 14:13:30;;;;;;;1.42;1.00;;;21.80;55.30;;;;;;4873075;28;48393;-83
2023/08/11 14:15:56;;;;;;;1.10;0.90;;;21.80;55.40;;;;;;4865674;28;45242;-79
2023/08/11 14:18:21;;;;;;;1.10;0.90;;;21.80;55.40;;;;;;4883456;28;44739;-81
2023/08/11 14:20:47;;;;;;;0.77;0.70;;;21.80;55.40;;;;;;4884085;28;45475;-82
2023/08/11 14:23:12;;;;;;;1.10;1.00;;;21.80;55.30;;;;;;4875567;28;47732;-84
2023/08/11 14:25:40;;;;;;;1.20;1.08;;;21.80;55.40;;;;;;4851211;28;45807;-84
2023/08/11 14:28:05;;;;;;;1.17;1.08;;;21.70;55.40;;;;;;4886731;28;45513;-83
2023/08/11 14:30:31;;;;;;;0.80;0.80;;;21.80;55.40;;;;;;4882635;28;45134;-82
2023/08/11 14:32:56;;;;;;;1.30;1.20;;;21.70;55.50;;;;;;4868435;28;45456;-84
2023/08/11 14:35:22;;;;;;;1.73;1.10;;;21.80;55.40;;;;;;4891675;28;47574;-84
2023/08/11 14:37:47;;;;;;;1.35;0.88;;;21.70;55.30;;;;;;4870860;28;45308;-81
2023/08/11 14:40:13;;;;;;;1.15;0.90;;;21.80;55.40;;;;;;4885604;28;45289;-85
2023/08/11 14:42:39;;;;;;;1.20;1.05;;;21.80;55.30;;;;;;4880741;28;46807;-83
2023/08/11 14:45:08;;;;;;;0.80;0.80;;;21.80;55.30;;;;;;4880958;28;45294;-85
2023/08/11 14:47:33;;;;;;;1.00;0.70;;;21.80;55.30;;;;;;4865107;28;45275;-81
2023/08/11 14:49:59;;;;;;;1.25;0.90;;;21.80;55.30;;;;;;4850628;28;45085;-82
2023/08/11 14:52:25;;;;;;;0.85;0.80;;;21.80;55.40;;;;;;4880185;28;46890;-83
2023/08/11 14:54:50;;;;;;;1.02;0.90;;;21.80;55.40;;;;;;4890185;28;45829;-83
2023/08/11 14:57:17;;;;;;;1.05;0.95;;;21.80;55.30;;;;;;4893837;28;45381;-82
2023/08/11 14:59:43;;;;;;;1.25;1.00;;;21.80;55.30;;;;;;4885940;28;46154;-85
2023/08/11 15:02:09;;;;;;;1.60;0.90;;;21.80;55.40;;;;;;4880848;28;46052;-82
2023/08/11 15:04:34;;;;;;;0.70;0.70;;;21.80;55.30;;;;;;4885018;28;45154;-82
2023/08/11 15:07:00;;;;;;;1.27;0.80;;;21.80;55.30;;;;;;4881921;28;45414;-83
2023/08/11 15:09:26;;;;;;;1.10;1.00;;;21.80;55.40;;;;;;4872933;28;45211;-83
2023/08/11 15:11:52;;;;;;;1.23;0.77;;;21.80;55.30;;;;;;4900075;28;45526;-83
2023/08/11 15:14:17;;;;;;;2.17;0.70;;;21.80;55.30;;;;;;4871765;28;46171;-82
2023/08/11 15:16:43;;;;;;;0.60;0.60;;;21.80;55.30;;;;;;4879828;28;45167;-83
2023/08/11 15:19:09;;;;;;;0.90;0.90;;;21.80;55.30;;;;;;4866790;28;45124;-81
2023/08/11 15:21:34;;;;;;;1.20;1.02;;;21.80;55.30;;;;;;4848360;28;47341;-85
2023/08/11 15:24:00;;;;;;;0.73;0.73;;;21.80;55.40;;;;;;4886162;28;45232;-86
2023/08/11 15:26:29;;;;;;;1.60;1.00;;;21.80;55.30;;;;;;4873173;28;45295;-88
2023/08/11 15:28:54;;;;;;;0.77;0.77;;;21.90;55.30;;;;;;4881675;28;45345;-85
2023/08/11 15:31:20;;;;;;;1.02;0.93;;;21.80;55.30;;;;;;4879009;28;47176;-82
2023/08/11 15:33:46;;;;;;;0.80;0.80;;;21.80;55.30;;;;;;4883547;28;45201;-84
2023/08/11 15:36:11;;;;;;;1.27;1.15;;;21.80;55.30;;;;;;4869102;28;45865;-82
2023/08/11 15:38:37;;;;;;;1.50;0.90;;;21.80;55.30;;;;;;4873937;28;45651;-81
2023/08/11 15:41:03;;;;;;;1.15;1.05;;;21.80;55.30;;;;;;4865630;28;45559;-81
2023/08/11 15:43:29;;;;;;;0.70;0.70;;;21.80;55.30;;;;;;4858831;28;45890;-81